Aérodrome :
LOGIN :

S'inscrire | Disclaimer

   EN    FR    IT 

 










Légende :    VFR   VFR Marginal   IFR   IFR Intensif   IFR Très Intensif
Visi : 
Plafond : 
>= 8 km
>= 3000ft
5 à 8 km
1000 à 3000 ft
1500m à 5 km
500 à 1000 ft
800 à 1500m
200 à 500 ft
< 800m
< 200 ft
Symboles :   Orages  Brouillard  Fortes neiges  Fortes précipitations  Vent > 20 kt
SIGMETs :   Divers  Orages  Givrage  Turbulence  Onde Orograph.  Cendres Volcan.






- Altitude de l'aérodrome : 106 ft
- Code IATA : NRN


EDLV - Weeze

DERNIER METAR :
  • 211020Z 20004KT 9999 OVC015 22/21 Q1008

METARs EXPIRÉS :
  • 210950Z 21006KT 170V230 9999 -DZ OVC016 22/20 Q1008
  • 210920Z 21008KT 180V240 9999 OVC017 23/20 Q1007
  • 210850Z 21007KT 180V250 9999 OVC017 23/20 Q1007
  • 210820Z 19009KT 150V220 9999 BKN017 23/20 Q1007
  • 210750Z 19008KT 160V230 9999 SCT018 24/20 Q1006
  • 210720Z 22009KT CAVOK 24/20 Q1006
  • 210650Z 21007KT CAVOK 23/21 Q1006
  • 210620Z 18006KT CAVOK 22/20 Q1006
  • 210550Z 22005KT CAVOK 21/20 Q1005

TAF TAF EDLV
Valide du 21 à 06h jusqu'au 22 à 06h UTC


210500Z 2106/2206 VRB03KT 9999 SCT040
BECMG 2107/2110 28006KT
TEMPO 2108/2115 SHRA BKN030CB
PROB30
TEMPO 2108/2115 29012KT 4000 TSRA BKN020CB
TEMPO 2202/2206 4000 BR



MET'MAP, la Météo Aéronautique d'un coup d'oeil ! - Copyright ORBIFLY Décembre 2007 - Disclaimer

ORBIFLY MET'MAP TEAM :

Programmation & Développement : Alexandra Zaïnal
Sur une idée originale de : Baudouin d'Aumeries
Soutien technique & logistique : Manuel Goepfert
Assistance : Marc-Olivier Méhu




SOURCES & CREDITS :

   NOAA